Главная страница
METAR-TAF:

METAR-TAF

Аэропорты :

Гейтерсберг, Мэриленд, США

широта: 39-10-06N, долгота: 077-09-58W, высота над уровнем моря: 164 м

Текущие метеонаблюдения

Эта сводка был подготовлена 49 минут назад, в 10:56 UTC
Ветер 5 Узел от восточно-юго-восточный
Температура 10°C
Влажность 82%
Давление 1025 hPa
Видимость: 16.1 км
ясное небо

METAR: KGAI 161056Z AUTO 12005KT 10SM CLR 10/07 A3026 RMK AO2 SLP260 T01000072

Время: 07:45 (11:45 UTC)


TAF: отсутствует

Метеонаблюдения и прогнозы для более 4000 аэропортов (сводки METAR и TAF).

Имеющиеся станции представлены на карте желтыми и красными точками.

Чтобы увидеть название станции, наведите на нее мышь.

Затем щелкните, чтобы увидеть метеонаблюдения и метеопрогнозы.

Управление картой: чтобы увеличить масштаб, щелкните зеленые кнопки с черным крестиком; чтобы уменьшить масштаб, щелкните зеленую кнопку с тире; для просмотра соседних карт щелкайте зеленые стрелки.


METAR-TAF: